sensor_id;sensor_type;location;lat;lon;timestamp;pressure;altitude;pressure_sealevel;temperature;humidity
14117;BME280;7137;51.436;6.544;2023-04-23T00:00:35;100394.97;;;10.63;100.00
14117;BME280;7137;51.436;6.544;2023-04-23T00:03:37;100397.97;;;10.53;100.00
14117;BME280;7137;51.436;6.544;2023-04-23T00:06:45;100385.88;;;10.50;100.00
14117;BME280;7137;51.436;6.544;2023-04-23T00:09:49;100391.41;;;10.66;100.00
14117;BME280;7137;51.436;6.544;2023-04-23T00:12:51;100386.22;;;10.41;100.00
14117;BME280;7137;51.436;6.544;2023-04-23T00:15:54;100385.44;;;10.62;100.00
14117;BME280;7137;51.436;6.544;2023-04-23T00:18:55;100387.66;;;10.73;100.00
14117;BME280;7137;51.436;6.544;2023-04-23T00:21:58;100386.50;;;10.80;100.00
14117;BME280;7137;51.436;6.544;2023-04-23T00:25:00;100395.03;;;10.62;100.00
14117;BME280;7137;51.436;6.544;2023-04-23T00:28:03;100386.69;;;10.52;100.00
14117;BME280;7137;51.436;6.544;2023-04-23T00:31:04;100385.31;;;10.65;100.00
14117;BME280;7137;51.436;6.544;2023-04-23T00:34:06;100384.84;;;10.54;100.00
14117;BME280;7137;51.436;6.544;2023-04-23T00:37:09;100382.78;;;10.64;100.00
14117;BME280;7137;51.436;6.544;2023-04-23T00:40:11;100389.09;;;10.58;100.00
14117;BME280;7137;51.436;6.544;2023-04-23T00:43:12;100388.31;;;10.55;100.00
14117;BME280;7137;51.436;6.544;2023-04-23T00:46:15;100388.47;;;10.27;100.00
14117;BME280;7137;51.436;6.544;2023-04-23T00:49:17;100392.56;;;10.34;100.00
14117;BME280;7137;51.436;6.544;2023-04-23T00:52:22;100388.78;;;10.43;100.00
14117;BME280;7137;51.436;6.544;2023-04-23T00:55:24;100379.25;;;10.42;100.00
14117;BME280;7137;51.436;6.544;2023-04-23T00:58:26;100374.19;;;10.37;100.00
14117;BME280;7137;51.436;6.544;2023-04-23T01:01:27;100372.16;;;10.20;100.00
14117;BME280;7137;51.436;6.544;2023-04-23T01:04:30;100376.50;;;10.21;100.00
14117;BME280;7137;51.436;6.544;2023-04-23T01:07:34;100377.28;;;10.23;100.00
14117;BME280;7137;51.436;6.544;2023-04-23T01:10:36;100374.25;;;10.35;100.00
14117;BME280;7137;51.436;6.544;2023-04-23T01:13:38;100370.38;;;10.21;100.00
14117;BME280;7137;51.436;6.544;2023-04-23T01:16:39;100364.59;;;10.37;100.00
14117;BME280;7137;51.436;6.544;2023-04-23T01:19:41;100355.06;;;10.36;100.00
14117;BME280;7137;51.436;6.544;2023-04-23T01:22:45;100355.84;;;10.38;100.00
14117;BME280;7137;51.436;6.544;2023-04-23T01:25:46;100354.28;;;10.34;100.00
14117;BME280;7137;51.436;6.544;2023-04-23T01:28:48;100348.63;;;10.22;100.00
14117;BME280;7137;51.436;6.544;2023-04-23T01:35:47;100349.22;;;10.05;100.00
14117;BME280;7137;51.436;6.544;2023-04-23T01:38:52;100340.84;;;9.95;100.00
14117;BME280;7137;51.436;6.544;2023-04-23T01:41:54;100341.47;;;9.77;100.00
14117;BME280;7137;51.436;6.544;2023-04-23T01:44:56;100339.03;;;9.72;100.00
14117;BME280;7137;51.436;6.544;2023-04-23T01:47:58;100336.56;;;9.68;100.00
14117;BME280;7137;51.436;6.544;2023-04-23T01:51:00;100341.19;;;9.85;100.00
14117;BME280;7137;51.436;6.544;2023-04-23T01:54:03;100342.16;;;9.82;100.00
14117;BME280;7137;51.436;6.544;2023-04-23T01:57:05;100337.34;;;9.71;100.00
14117;BME280;7137;51.436;6.544;2023-04-23T02:00:09;100338.78;;;9.53;100.00
14117;BME280;7137;51.436;6.544;2023-04-23T02:03:10;100349.44;;;9.47;100.00
14117;BME280;7137;51.436;6.544;2023-04-23T02:06:12;100347.91;;;9.40;100.00
14117;BME280;7137;51.436;6.544;2023-04-23T02:09:15;100356.19;;;9.53;100.00
14117;BME280;7137;51.436;6.544;2023-04-23T02:12:17;100347.91;;;9.40;100.00
14117;BME280;7137;51.436;6.544;2023-04-23T02:15:19;100348.13;;;9.61;100.00
14117;BME280;7137;51.436;6.544;2023-04-23T02:18:20;100348.25;;;9.58;100.00
14117;BME280;7137;51.436;6.544;2023-04-23T02:21:24;100337.94;;;9.53;100.00
14117;BME280;7137;51.436;6.544;2023-04-23T02:24:27;100343.91;;;9.57;100.00
14117;BME280;7137;51.436;6.544;2023-04-23T02:27:29;100349.88;;;9.60;100.00
14117;BME280;7137;51.436;6.544;2023-04-23T02:30:32;100342.13;;;9.32;100.00
14117;BME280;7137;51.436;6.544;2023-04-23T02:33:34;100338.00;;;9.25;100.00
14117;BME280;7137;51.436;6.544;2023-04-23T02:36:35;100335.84;;;9.38;100.00
14117;BME280;7137;51.436;6.544;2023-04-23T02:39:38;100331.06;;;9.50;100.00
14117;BME280;7137;51.436;6.544;2023-04-23T02:42:40;100330.56;;;9.39;100.00
14117;BME280;7137;51.436;6.544;2023-04-23T02:45:41;100330.28;;;9.48;100.00
14117;BME280;7137;51.436;6.544;2023-04-23T02:48:43;100319.91;;;9.47;100.00
14117;BME280;7137;51.436;6.544;2023-04-23T02:51:46;100326.06;;;9.44;100.00
14117;BME280;7137;51.436;6.544;2023-04-23T02:54:49;100325.00;;;9.50;100.00
14117;BME280;7137;51.436;6.544;2023-04-23T02:57:51;100325.13;;;9.47;100.00
14117;BME280;7137;51.436;6.544;2023-04-23T03:04:49;100317.34;;;9.45;100.00
14117;BME280;7137;51.436;6.544;2023-04-23T03:07:50;100314.75;;;9.45;100.00
14117;BME280;7137;51.436;6.544;2023-04-23T03:10:53;100321.66;;;9.46;100.00
14117;BME280;7137;51.436;6.544;2023-04-23T03:13:58;100318.16;;;9.47;100.00
14117;BME280;7137;51.436;6.544;2023-04-23T03:16:59;100316.00;;;9.34;100.00
14117;BME280;7137;51.436;6.544;2023-04-23T03:20:01;100303.59;;;9.40;100.00
14117;BME280;7137;51.436;6.544;2023-04-23T03:23:02;100302.00;;;9.36;100.00
14117;BME280;7137;51.436;6.544;2023-04-23T03:26:06;100305.97;;;9.21;100.00
14117;BME280;7137;51.436;6.544;2023-04-23T03:29:08;100301.94;;;9.38;100.00
14117;BME280;7137;51.436;6.544;2023-04-23T03:32:10;100308.28;;;9.31;100.00
14117;BME280;7137;51.436;6.544;2023-04-23T03:35:11;100307.66;;;9.49;100.00
14117;BME280;7137;51.436;6.544;2023-04-23T03:38:13;100306.41;;;9.61;100.00
14117;BME280;7137;51.436;6.544;2023-04-23T03:41:16;100301.69;;;9.72;100.00
14117;BME280;7137;51.436;6.544;2023-04-23T03:44:17;100302.06;;;9.86;100.00
14117;BME280;7137;51.436;6.544;2023-04-23T03:47:19;100303.47;;;9.95;100.00
14117;BME280;7137;51.436;6.544;2023-04-23T03:50:20;100300.06;;;9.93;100.00
14117;BME280;7137;51.436;6.544;2023-04-23T03:53:22;100303.47;;;9.95;100.00
14117;BME280;7137;51.436;6.544;2023-04-23T03:56:25;100293.94;;;9.94;100.00
14117;BME280;7137;51.436;6.544;2023-04-23T03:59:26;100293.41;;;9.84;100.00
14117;BME280;7137;51.436;6.544;2023-04-23T04:02:28;100295.91;;;9.87;100.00
14117;BME280;7137;51.436;6.544;2023-04-23T04:05:29;100298.59;;;9.86;100.00
14117;BME280;7137;51.436;6.544;2023-04-23T04:08:31;100295.00;;;9.63;100.00
14117;BME280;7137;51.436;6.544;2023-04-23T04:11:34;100302.53;;;9.72;100.00
14117;BME280;7137;51.436;6.544;2023-04-23T04:14:36;100290.34;;;9.73;100.00
14117;BME280;7137;51.436;6.544;2023-04-23T04:17:37;100298.41;;;9.65;100.00
14117;BME280;7137;51.436;6.544;2023-04-23T04:20:39;100302.16;;;9.58;100.00
14117;BME280;7137;51.436;6.544;2023-04-23T04:23:43;100303.00;;;9.59;100.00
14117;BME280;7137;51.436;6.544;2023-04-23T04:26:46;100305.13;;;9.72;100.00
14117;BME280;7137;51.436;6.544;2023-04-23T04:29:48;100295.88;;;9.64;100.00
14117;BME280;7137;51.436;6.544;2023-04-23T04:32:50;100293.09;;;9.68;100.00
14117;BME280;7137;51.436;6.544;2023-04-23T04:35:52;100287.88;;;9.68;100.00
14117;BME280;7137;51.436;6.544;2023-04-23T04:38:54;100294.97;;;9.65;100.00
14117;BME280;7137;51.436;6.544;2023-04-23T04:41:59;100296.22;;;9.53;100.00
14117;BME280;7137;51.436;6.544;2023-04-23T04:45:02;100300.84;;;9.70;100.00
14117;BME280;7137;51.436;6.544;2023-04-23T04:48:05;100284.53;;;9.90;100.00
14117;BME280;7137;51.436;6.544;2023-04-23T04:51:06;100297.94;;;10.04;100.00
14117;BME280;7137;51.436;6.544;2023-04-23T04:54:08;100300.41;;;10.32;100.00
14117;BME280;7137;51.436;6.544;2023-04-23T04:57:10;100312.25;;;10.40;100.00
14117;BME280;7137;51.436;6.544;2023-04-23T05:00:20;100313.34;;;10.58;100.00
14117;BME280;7137;51.436;6.544;2023-04-23T05:03:22;100311.91;;;10.73;100.00
14117;BME280;7137;51.436;6.544;2023-04-23T05:06:24;100307.34;;;10.78;100.00
14117;BME280;7137;51.436;6.544;2023-04-23T05:09:25;100312.34;;;10.84;100.00
14117;BME280;7137;51.436;6.544;2023-04-23T05:12:28;100303.63;;;10.84;100.00
14117;BME280;7137;51.436;6.544;2023-04-23T05:15:30;100301.91;;;10.84;100.00
14117;BME280;7137;51.436;6.544;2023-04-23T05:18:31;100301.69;;;10.89;100.00
14117;BME280;7137;51.436;6.544;2023-04-23T05:21:33;100303.28;;;10.93;100.00
14117;BME280;7137;51.436;6.544;2023-04-23T05:24:34;100298.06;;;10.93;100.00
14117;BME280;7137;51.436;6.544;2023-04-23T05:27:38;100293.53;;;10.96;100.00
14117;BME280;7137;51.436;6.544;2023-04-23T05:30:39;100289.78;;;11.04;100.00
14117;BME280;7137;51.436;6.544;2023-04-23T05:33:41;100292.22;;;11.08;100.00
14117;BME280;7137;51.436;6.544;2023-04-23T05:36:44;100294.03;;;11.06;100.00
14117;BME280;7137;51.436;6.544;2023-04-23T05:39:45;100291.47;;;11.26;100.00
14117;BME280;7137;51.436;6.544;2023-04-23T05:42:49;100293.91;;;11.31;100.00
14117;BME280;7137;51.436;6.544;2023-04-23T05:45:51;100289.25;;;11.38;100.00
14117;BME280;7137;51.436;6.544;2023-04-23T05:48:52;100296.31;;;11.36;100.00
14117;BME280;7137;51.436;6.544;2023-04-23T05:51:54;100305.00;;;11.36;100.00
14117;BME280;7137;51.436;6.544;2023-04-23T05:54:57;100297.44;;;11.50;100.00
14117;BME280;7137;51.436;6.544;2023-04-23T05:58:00;100304.13;;;11.57;100.00
14117;BME280;7137;51.436;6.544;2023-04-23T06:01:02;100302.31;;;11.80;100.00
14117;BME280;7137;51.436;6.544;2023-04-23T06:04:03;100300.22;;;11.88;100.00
14117;BME280;7137;51.436;6.544;2023-04-23T06:07:05;100298.72;;;11.82;100.00
14117;BME280;7137;51.436;6.544;2023-04-23T06:10:07;100299.06;;;12.14;100.00
14117;BME280;7137;51.436;6.544;2023-04-23T06:13:10;100307.03;;;12.31;100.00
14117;BME280;7137;51.436;6.544;2023-04-23T06:16:12;100304.41;;;12.31;100.00
14117;BME280;7137;51.436;6.544;2023-04-23T06:19:13;100303.25;;;12.37;100.00
14117;BME280;7137;51.436;6.544;2023-04-23T06:22:14;100302.69;;;12.49;100.00
14117;BME280;7137;51.436;6.544;2023-04-23T06:25:16;100308.94;;;12.65;100.00
14117;BME280;7137;51.436;6.544;2023-04-23T06:28:19;100303.19;;;12.76;100.00
14117;BME280;7137;51.436;6.544;2023-04-23T06:31:20;100303.84;;;12.81;99.64
14117;BME280;7137;51.436;6.544;2023-04-23T06:34:22;100304.75;;;12.80;98.64
14117;BME280;7137;51.436;6.544;2023-04-23T06:37:23;100302.81;;;13.02;99.22
14117;BME280;7137;51.436;6.544;2023-04-23T06:40:27;100299.84;;;13.79;100.00
14117;BME280;7137;51.436;6.544;2023-04-23T06:43:30;100298.47;;;14.87;96.10
14117;BME280;7137;51.436;6.544;2023-04-23T06:46:31;100311.09;;;17.27;75.48
14117;BME280;7137;51.436;6.544;2023-04-23T06:49:33;100305.63;;;19.19;67.35
14117;BME280;7137;51.436;6.544;2023-04-23T06:52:34;100300.94;;;22.61;54.43
14117;BME280;7137;51.436;6.544;2023-04-23T06:55:36;100306.75;;;21.93;55.98
14117;BME280;7137;51.436;6.544;2023-04-23T06:58:39;100307.94;;;23.02;51.80
14117;BME280;7137;51.436;6.544;2023-04-23T07:01:41;100309.75;;;24.90;47.45
14117;BME280;7137;51.436;6.544;2023-04-23T07:04:43;100304.75;;;27.04;41.95
14117;BME280;7137;51.436;6.544;2023-04-23T07:07:44;100303.59;;;27.15;41.62
14117;BME280;7137;51.436;6.544;2023-04-23T07:10:46;100296.59;;;27.79;38.99
14117;BME280;7137;51.436;6.544;2023-04-23T07:13:49;100295.97;;;26.94;42.11
14117;BME280;7137;51.436;6.544;2023-04-23T07:16:50;100286.13;;;29.64;37.42
14117;BME280;7137;51.436;6.544;2023-04-23T07:19:52;100284.09;;;30.18;35.34
14117;BME280;7137;51.436;6.544;2023-04-23T07:22:53;100274.28;;;29.27;36.74
14117;BME280;7137;51.436;6.544;2023-04-23T07:25:55;100270.47;;;26.82;40.08
14117;BME280;7137;51.436;6.544;2023-04-23T07:28:58;100265.50;;;26.45;41.61
14117;BME280;7137;51.436;6.544;2023-04-23T07:32:00;100267.81;;;26.82;41.72
14117;BME280;7137;51.436;6.544;2023-04-23T07:35:02;100266.91;;;24.64;45.65
14117;BME280;7137;51.436;6.544;2023-04-23T07:38:04;100262.00;;;24.32;47.59
14117;BME280;7137;51.436;6.544;2023-04-23T07:41:06;100255.69;;;24.23;47.18
14117;BME280;7137;51.436;6.544;2023-04-23T07:44:09;100258.34;;;24.33;48.51
14117;BME280;7137;51.436;6.544;2023-04-23T07:47:10;100259.28;;;24.69;46.60
14117;BME280;7137;51.436;6.544;2023-04-23T07:50:12;100246.69;;;25.51;44.43
14117;BME280;7137;51.436;6.544;2023-04-23T07:53:14;100244.38;;;23.46;49.17
14117;BME280;7137;51.436;6.544;2023-04-23T07:56:15;100250.56;;;25.56;44.74
14117;BME280;7137;51.436;6.544;2023-04-23T07:59:18;100249.13;;;26.48;43.79
14117;BME280;7137;51.436;6.544;2023-04-23T08:02:20;100250.13;;;25.87;42.78
14117;BME280;7137;51.436;6.544;2023-04-23T08:05:25;100247.41;;;25.17;44.04
14117;BME280;7137;51.436;6.544;2023-04-23T08:08:27;100246.38;;;26.98;42.02
14117;BME280;7137;51.436;6.544;2023-04-23T08:11:28;100235.41;;;25.39;42.74
14117;BME280;7137;51.436;6.544;2023-04-23T08:14:31;100227.41;;;23.37;47.80
14117;BME280;7137;51.436;6.544;2023-04-23T08:17:33;100228.69;;;24.26;49.13
14117;BME280;7137;51.436;6.544;2023-04-23T08:20:34;100217.88;;;25.44;43.65
14117;BME280;7137;51.436;6.544;2023-04-23T08:23:36;100230.84;;;24.23;45.69
14117;BME280;7137;51.436;6.544;2023-04-23T08:26:37;100230.28;;;25.97;42.12
14117;BME280;7137;51.436;6.544;2023-04-23T08:29:40;100226.66;;;25.55;45.18
14117;BME280;7137;51.436;6.544;2023-04-23T08:32:42;100226.56;;;26.67;41.95
14117;BME280;7137;51.436;6.544;2023-04-23T08:35:43;100231.00;;;27.49;40.84
14117;BME280;7137;51.436;6.544;2023-04-23T08:38:45;100236.50;;;28.66;39.50
14117;BME280;7137;51.436;6.544;2023-04-23T08:41:50;100227.94;;;25.25;42.93
14117;BME280;7137;51.436;6.544;2023-04-23T08:48:53;100222.44;;;27.37;39.01
14117;BME280;7137;51.436;6.544;2023-04-23T08:51:59;100229.66;;;27.12;41.08
14117;BME280;7137;51.436;6.544;2023-04-23T08:55:07;100230.97;;;25.99;42.03
14117;BME280;7137;51.436;6.544;2023-04-23T08:58:10;100223.50;;;24.25;45.79
14117;BME280;7137;51.436;6.544;2023-04-23T09:01:12;100218.47;;;23.94;46.46
14117;BME280;7137;51.436;6.544;2023-04-23T09:08:12;100215.59;;;23.68;46.04
14117;BME280;7137;51.436;6.544;2023-04-23T09:11:14;100214.69;;;26.27;42.33
14117;BME280;7137;51.436;6.544;2023-04-23T09:14:17;100209.38;;;27.18;38.59
14117;BME280;7137;51.436;6.544;2023-04-23T09:17:20;100212.84;;;26.27;39.72
14117;BME280;7137;51.436;6.544;2023-04-23T09:20:22;100206.25;;;26.06;40.26
14117;BME280;7137;51.436;6.544;2023-04-23T09:23:25;100202.97;;;23.98;43.61
14117;BME280;7137;51.436;6.544;2023-04-23T09:26:27;100207.66;;;25.40;41.79
14117;BME280;7137;51.436;6.544;2023-04-23T09:29:29;100197.47;;;27.37;40.20
14117;BME280;7137;51.436;6.544;2023-04-23T09:32:31;100196.13;;;27.16;36.82
14117;BME280;7137;51.436;6.544;2023-04-23T09:47:27;100189.75;;;22.24;46.47
14117;BME280;7137;51.436;6.544;2023-04-23T09:50:32;100188.13;;;24.23;45.55
14117;BME280;7137;51.436;6.544;2023-04-23T09:53:39;100174.56;;;24.79;44.51
14117;BME280;7137;51.436;6.544;2023-04-23T09:56:42;100178.22;;;25.66;41.48
14117;BME280;7137;51.436;6.544;2023-04-23T09:59:43;100180.41;;;25.44;39.45
14117;BME280;7137;51.436;6.544;2023-04-23T10:02:47;100190.31;;;24.37;43.29
14117;BME280;7137;51.436;6.544;2023-04-23T10:05:48;100178.66;;;24.74;40.33
14117;BME280;7137;51.436;6.544;2023-04-23T10:08:50;100180.63;;;25.25;40.33
14117;BME280;7137;51.436;6.544;2023-04-23T10:11:53;100178.13;;;23.51;42.89
14117;BME280;7137;51.436;6.544;2023-04-23T10:14:55;100167.06;;;23.36;42.50
14117;BME280;7137;51.436;6.544;2023-04-23T10:18:01;100160.88;;;22.29;45.59
14117;BME280;7137;51.436;6.544;2023-04-23T10:21:04;100159.34;;;22.36;45.37
14117;BME280;7137;51.436;6.544;2023-04-23T10:24:08;100159.41;;;23.04;44.37
14117;BME280;7137;51.436;6.544;2023-04-23T10:27:12;100158.81;;;22.42;43.09
14117;BME280;7137;51.436;6.544;2023-04-23T10:30:15;100163.53;;;22.29;44.27
14117;BME280;7137;51.436;6.544;2023-04-23T10:33:19;100154.13;;;22.15;43.17
14117;BME280;7137;51.436;6.544;2023-04-23T10:36:22;100153.75;;;22.49;44.50
14117;BME280;7137;51.436;6.544;2023-04-23T10:39:26;100147.44;;;21.90;44.41
14117;BME280;7137;51.436;6.544;2023-04-23T10:42:28;100142.25;;;21.89;44.42
14117;BME280;7137;51.436;6.544;2023-04-23T10:45:30;100135.09;;;21.49;46.52
14117;BME280;7137;51.436;6.544;2023-04-23T10:48:51;100132.41;;;21.40;47.27
14117;BME280;7137;51.436;6.544;2023-04-23T10:52:08;100133.75;;;22.05;46.68
14117;BME280;7137;51.436;6.544;2023-04-23T10:55:18;100134.38;;;22.18;44.29
14117;BME280;7137;51.436;6.544;2023-04-23T10:58:20;100124.03;;;22.15;46.27
14117;BME280;7137;51.436;6.544;2023-04-23T11:01:24;100120.88;;;21.60;47.68
14117;BME280;7137;51.436;6.544;2023-04-23T11:04:28;100118.53;;;20.62;48.83
14117;BME280;7137;51.436;6.544;2023-04-23T11:07:31;100115.81;;;21.26;48.38
14117;BME280;7137;51.436;6.544;2023-04-23T11:10:50;100100.44;;;21.60;45.77
14117;BME280;7137;51.436;6.544;2023-04-23T11:13:52;100099.13;;;21.95;44.23
14117;BME280;7137;51.436;6.544;2023-04-23T11:16:54;100106.66;;;20.98;46.22
14117;BME280;7137;51.436;6.544;2023-04-23T11:20:10;100096.81;;;20.89;47.67
14117;BME280;7137;51.436;6.544;2023-04-23T11:23:28;100093.50;;;20.55;47.35
14117;BME280;7137;51.436;6.544;2023-04-23T11:26:33;100083.94;;;20.85;48.13
14117;BME280;7137;51.436;6.544;2023-04-23T11:29:36;100085.41;;;20.78;47.39
14117;BME280;7137;51.436;6.544;2023-04-23T11:32:38;100082.38;;;20.18;47.32
14117;BME280;7137;51.436;6.544;2023-04-23T11:35:41;100077.09;;;20.50;47.94
14117;BME280;7137;51.436;6.544;2023-04-23T11:38:42;100074.84;;;20.02;49.35
14117;BME280;7137;51.436;6.544;2023-04-23T11:41:45;100076.78;;;20.43;51.15
14117;BME280;7137;51.436;6.544;2023-04-23T11:44:47;100078.59;;;20.64;48.82
14117;BME280;7137;51.436;6.544;2023-04-23T11:47:49;100063.25;;;21.09;48.26
14117;BME280;7137;51.436;6.544;2023-04-23T11:50:56;100057.50;;;20.62;48.15
14117;BME280;7137;51.436;6.544;2023-04-23T11:54:04;100053.41;;;21.00;49.72
14117;BME280;7137;51.436;6.544;2023-04-23T11:57:06;100054.88;;;20.83;47.26
14117;BME280;7137;51.436;6.544;2023-04-23T12:00:13;100041.31;;;21.38;49.17
14117;BME280;7137;51.436;6.544;2023-04-23T12:03:15;100050.56;;;21.83;47.68
14117;BME280;7137;51.436;6.544;2023-04-23T12:06:18;100033.47;;;21.96;46.35
14117;BME280;7137;51.436;6.544;2023-04-23T12:09:21;100034.63;;;21.22;48.84
14117;BME280;7137;51.436;6.544;2023-04-23T12:12:22;100034.50;;;21.24;47.02
14117;BME280;7137;51.436;6.544;2023-04-23T12:15:24;100022.59;;;21.18;46.71
14117;BME280;7137;51.436;6.544;2023-04-23T12:18:26;100028.16;;;21.36;44.86
14117;BME280;7137;51.436;6.544;2023-04-23T12:21:29;100020.75;;;21.89;44.02
14117;BME280;7137;51.436;6.544;2023-04-23T12:24:44;100014.88;;;21.86;42.57
14117;BME280;7137;51.436;6.544;2023-04-23T12:27:46;100009.69;;;21.94;42.70
14117;BME280;7137;51.436;6.544;2023-04-23T12:30:49;100015.41;;;21.30;42.73
14117;BME280;7137;51.436;6.544;2023-04-23T12:33:57;100013.06;;;21.37;45.11
14117;BME280;7137;51.436;6.544;2023-04-23T12:37:05;99998.69;;;21.49;43.03
14117;BME280;7137;51.436;6.544;2023-04-23T12:40:07;99989.50;;;20.92;45.16
14117;BME280;7137;51.436;6.544;2023-04-23T12:43:09;99989.06;;;21.17;46.64
14117;BME280;7137;51.436;6.544;2023-04-23T12:46:10;99976.34;;;21.21;44.00
14117;BME280;7137;51.436;6.544;2023-04-23T12:49:12;99982.63;;;20.89;45.44
14117;BME280;7137;51.436;6.544;2023-04-23T12:52:15;99972.63;;;20.51;45.47
14117;BME280;7137;51.436;6.544;2023-04-23T12:55:17;99977.75;;;20.64;44.59
14117;BME280;7137;51.436;6.544;2023-04-23T12:58:18;99962.97;;;20.71;46.01
14117;BME280;7137;51.436;6.544;2023-04-23T13:01:20;99962.44;;;20.77;46.68
14117;BME280;7137;51.436;6.544;2023-04-23T13:04:21;99963.38;;;20.97;44.41
14117;BME280;7137;51.436;6.544;2023-04-23T13:07:24;99956.13;;;21.29;44.52
14117;BME280;7137;51.436;6.544;2023-04-23T13:10:25;99946.38;;;21.49;42.79
14117;BME280;7137;51.436;6.544;2023-04-23T13:13:29;99953.34;;;21.00;42.36
14117;BME280;7137;51.436;6.544;2023-04-23T13:16:31;99946.78;;;21.04;42.69
14117;BME280;7137;51.436;6.544;2023-04-23T13:19:33;99953.84;;;21.84;42.03
14117;BME280;7137;51.436;6.544;2023-04-23T13:22:38;99936.53;;;21.30;42.64
14117;BME280;7137;51.436;6.544;2023-04-23T13:25:39;99934.03;;;21.39;41.71
14117;BME280;7137;51.436;6.544;2023-04-23T13:28:41;99929.34;;;21.12;43.11
14117;BME280;7137;51.436;6.544;2023-04-23T13:31:42;99918.66;;;21.32;42.93
14117;BME280;7137;51.436;6.544;2023-04-23T13:34:44;99914.91;;;21.45;44.13
14117;BME280;7137;51.436;6.544;2023-04-23T13:37:47;99902.19;;;21.08;45.22
14117;BME280;7137;51.436;6.544;2023-04-23T13:40:48;99908.19;;;21.41;43.76
14117;BME280;7137;51.436;6.544;2023-04-23T13:43:50;99905.91;;;21.36;41.20
14117;BME280;7137;51.436;6.544;2023-04-23T13:46:51;99899.63;;;21.27;41.54
14117;BME280;7137;51.436;6.544;2023-04-23T13:49:53;99894.16;;;21.39;43.35
14117;BME280;7137;51.436;6.544;2023-04-23T13:52:56;99892.06;;;21.32;43.07
14117;BME280;7137;51.436;6.544;2023-04-23T13:55:58;99886.06;;;21.30;41.31
14117;BME280;7137;51.436;6.544;2023-04-23T13:59:00;99881.25;;;21.24;40.70
14117;BME280;7137;51.436;6.544;2023-04-23T14:02:03;99876.44;;;21.58;41.97
14117;BME280;7137;51.436;6.544;2023-04-23T14:05:05;99872.25;;;21.85;41.00
14117;BME280;7137;51.436;6.544;2023-04-23T14:08:09;99857.69;;;21.50;40.66
14117;BME280;7137;51.436;6.544;2023-04-23T14:11:12;99853.22;;;21.60;41.29
14117;BME280;7137;51.436;6.544;2023-04-23T14:14:13;99855.28;;;21.67;41.10
14117;BME280;7137;51.436;6.544;2023-04-23T14:17:15;99848.25;;;21.17;42.69
14117;BME280;7137;51.436;6.544;2023-04-23T14:20:17;99841.59;;;21.42;44.33
14117;BME280;7137;51.436;6.544;2023-04-23T14:23:55;99841.03;;;21.29;44.47
14117;BME280;7137;51.436;6.544;2023-04-23T14:26:57;99829.66;;;21.17;41.67
14117;BME280;7137;51.436;6.544;2023-04-23T14:30:01;99821.41;;;21.20;43.42
14117;BME280;7137;51.436;6.544;2023-04-23T14:33:05;99816.47;;;20.96;44.15
14117;BME280;7137;51.436;6.544;2023-04-23T14:36:07;99799.38;;;20.70;43.98
14117;BME280;7137;51.436;6.544;2023-04-23T14:39:09;99805.16;;;20.44;45.56
14117;BME280;7137;51.436;6.544;2023-04-23T14:42:11;99798.09;;;20.34;45.87
14117;BME280;7137;51.436;6.544;2023-04-23T14:45:14;99785.53;;;20.05;46.08
14117;BME280;7137;51.436;6.544;2023-04-23T14:48:17;99779.41;;;19.84;45.72
14117;BME280;7137;51.436;6.544;2023-04-23T14:51:18;99771.28;;;19.76;47.30
14117;BME280;7137;51.436;6.544;2023-04-23T14:54:21;99766.94;;;19.75;47.09
14117;BME280;7137;51.436;6.544;2023-04-23T14:57:22;99769.38;;;19.46;47.85
14117;BME280;7137;51.436;6.544;2023-04-23T15:00:24;99767.03;;;19.32;46.17
14117;BME280;7137;51.436;6.544;2023-04-23T15:03:26;99778.63;;;19.19;48.00
14117;BME280;7137;51.436;6.544;2023-04-23T15:06:27;99780.47;;;19.08;46.53
14117;BME280;7137;51.436;6.544;2023-04-23T15:09:30;99776.28;;;19.05;48.57
14117;BME280;7137;51.436;6.544;2023-04-23T15:12:47;99781.97;;;18.89;48.28
14117;BME280;7137;51.436;6.544;2023-04-23T15:15:54;99796.94;;;18.46;50.09
14117;BME280;7137;51.436;6.544;2023-04-23T15:18:56;99818.69;;;17.69;57.97
14117;BME280;7137;51.436;6.544;2023-04-23T15:21:57;99836.03;;;16.89;63.43
14117;BME280;7137;51.436;6.544;2023-04-23T15:25:00;99835.16;;;16.14;75.73
14117;BME280;7137;51.436;6.544;2023-04-23T15:28:02;99848.94;;;14.98;84.75
14117;BME280;7137;51.436;6.544;2023-04-23T15:31:04;99843.69;;;14.98;90.84
14117;BME280;7137;51.436;6.544;2023-04-23T15:34:06;99859.50;;;14.27;94.30
14117;BME280;7137;51.436;6.544;2023-04-23T15:37:07;99853.69;;;14.36;97.66
14117;BME280;7137;51.436;6.544;2023-04-23T15:40:11;99852.69;;;13.64;100.00
14117;BME280;7137;51.436;6.544;2023-04-23T15:43:12;99847.78;;;13.88;100.00
14117;BME280;7137;51.436;6.544;2023-04-23T15:46:14;99855.19;;;13.82;100.00
14117;BME280;7137;51.436;6.544;2023-04-23T15:49:15;99847.56;;;14.21;100.00
14117;BME280;7137;51.436;6.544;2023-04-23T15:52:17;99856.78;;;14.43;100.00
14117;BME280;7137;51.436;6.544;2023-04-23T15:55:19;99862.41;;;14.22;100.00
14117;BME280;7137;51.436;6.544;2023-04-23T15:58:21;99845.59;;;14.39;100.00
14117;BME280;7137;51.436;6.544;2023-04-23T16:01:22;99842.25;;;14.51;100.00
14117;BME280;7137;51.436;6.544;2023-04-23T16:04:24;99842.44;;;14.48;100.00
14117;BME280;7137;51.436;6.544;2023-04-23T16:07:25;99834.63;;;14.75;99.21
14117;BME280;7137;51.436;6.544;2023-04-23T16:10:28;99834.72;;;14.60;100.00
14117;BME280;7137;51.436;6.544;2023-04-23T16:13:33;99824.28;;;14.87;100.00
14117;BME280;7137;51.436;6.544;2023-04-23T16:16:35;99797.88;;;15.15;99.74
14117;BME280;7137;51.436;6.544;2023-04-23T16:19:37;99789.72;;;14.93;95.84
14117;BME280;7137;51.436;6.544;2023-04-23T16:22:39;99792.47;;;15.04;95.30
14117;BME280;7137;51.436;6.544;2023-04-23T16:25:41;99777.94;;;15.25;95.67
14117;BME280;7137;51.436;6.544;2023-04-23T16:28:43;99763.81;;;15.26;94.23
14117;BME280;7137;51.436;6.544;2023-04-23T16:31:45;99771.19;;;15.21;94.69
14117;BME280;7137;51.436;6.544;2023-04-23T16:34:47;99757.00;;;15.36;93.43